Time;durP1;ratioP1;P1;durP2;ratioP2;P2;SDS_P1;SDS_P2;PMS_P1;PMS_P2;Temp;Humidity;BMP_temperature;BMP_pressure;BME280_temperature;BME280_humidity;BME280_pressure;Samples;Min_cycle;Max_cycle;Signal;HPM_P1;HPM_P2
2023/07/28 00:01:25;;;;;;;1999.90;999.90;;;;;;;16.93;100.00;94372.78;5004220;28;20211;-59
2023/07/28 00:03:50;;;;;;;1999.90;999.90;;;;;;;16.91;100.00;94355.91;5004334;28;20203;-59
2023/07/28 00:06:15;;;;;;;1999.90;999.90;;;;;;;16.86;100.00;94348.28;5004233;28;20191;-59
2023/07/28 00:08:41;;;;;;;1999.90;999.90;;;;;;;16.82;100.00;94328.41;5004560;28;20243;-59
2023/07/28 00:11:14;;;;;;;1999.90;999.90;;;;;;;16.74;100.00;94305.13;5004466;28;20188;-59
2023/07/28 00:13:40;;;;;;;1999.90;999.90;;;;;;;16.65;100.00;94267.38;5004487;28;20207;-59
2023/07/28 00:16:06;;;;;;;1999.90;999.90;;;;;;;16.63;100.00;94247.78;5003900;28;20222;-59
2023/07/28 00:18:31;;;;;;;1999.90;999.90;;;;;;;16.61;100.00;94208.88;5004136;28;20219;-59
2023/07/28 00:20:57;;;;;;;1999.90;999.90;;;;;;;16.59;100.00;94183.78;5003765;28;20211;-59
2023/07/28 00:23:22;;;;;;;1999.90;999.90;;;;;;;16.55;100.00;94172.19;5003847;28;20227;-59
2023/07/28 00:25:47;;;;;;;1999.90;999.90;;;;;;;16.54;100.00;94169.91;5003958;28;20196;-59
2023/07/28 00:28:13;;;;;;;1999.90;999.90;;;;;;;16.54;100.00;94169.91;5003845;28;20188;-59
2023/07/28 00:30:39;;;;;;;1999.90;999.90;;;;;;;16.54;100.00;94158.88;5003780;28;20255;-59
2023/07/28 00:33:04;;;;;;;1999.90;999.90;;;;;;;16.52;100.00;94139.28;5003935;28;20192;-59
2023/07/28 00:35:29;;;;;;;1999.90;999.90;;;;;;;16.50;100.00;94114.19;5003728;28;20223;-58
2023/07/28 00:37:55;;;;;;;1999.90;999.90;;;;;;;16.50;100.00;94103.91;5004649;28;20168;-59
2023/07/28 00:40:22;;;;;;;1999.90;999.90;;;;;;;16.52;100.00;94097.94;5004057;28;20254;-59
2023/07/28 00:42:47;;;;;;;1999.90;999.90;;;;;;;16.53;100.00;94089.19;5005072;28;20505;-59
2023/07/28 00:45:12;;;;;;;1999.90;999.90;;;;;;;16.54;100.00;94090.75;5007819;28;20195;-60
2023/07/28 00:47:38;;;;;;;1999.90;999.90;;;;;;;16.54;100.00;94099.00;5007233;28;20327;-59
2023/07/28 00:50:04;;;;;;;1999.90;999.90;;;;;;;16.58;100.00;94126.38;5007243;28;20231;-59
2023/07/28 00:52:29;;;;;;;1999.90;999.90;;;;;;;16.61;100.00;94142.72;5007222;28;20195;-60
2023/07/28 00:54:55;;;;;;;1999.90;999.90;;;;;;;16.58;100.00;94167.72;5007142;28;20214;-59
2023/07/28 00:57:20;;;;;;;1999.90;999.90;;;;;;;16.55;100.00;94193.47;5007012;28;20191;-59
2023/07/28 00:59:46;;;;;;;1999.90;999.90;;;;;;;16.58;100.00;94222.84;5007155;28;20192;-59
2023/07/28 01:02:12;;;;;;;1999.90;999.90;;;;;;;16.63;100.00;94233.22;5007311;28;20199;-59
2023/07/28 01:04:38;;;;;;;1999.90;999.90;;;;;;;16.64;100.00;94248.56;5007337;28;20226;-59
2023/07/28 01:07:12;;;;;;;1999.90;999.90;;;;;;;16.66;100.00;94273.66;5007091;28;20200;-59
2023/07/28 01:09:52;;;;;;;1999.90;999.90;;;;;;;16.64;100.00;94285.13;5007315;28;20199;-59
2023/07/28 01:12:17;;;;;;;1999.90;999.90;;;;;;;16.69;100.00;94303.03;5007244;28;20230;-60
2023/07/28 01:14:44;;;;;;;1999.90;999.90;;;;;;;16.72;100.00;94313.13;5007144;28;20203;-59
2023/07/28 01:17:10;;;;;;;1999.90;999.90;;;;;;;16.75;100.00;94317.72;5007034;28;20196;-59
2023/07/28 01:19:35;;;;;;;1999.90;999.90;;;;;;;16.74;100.00;94316.16;5006824;28;20209;-59
2023/07/28 01:22:13;;;;;;;1999.90;999.90;;;;;;;16.74;100.00;94327.19;5006763;28;20234;-59
2023/07/28 01:25:20;;;;;;;1999.90;999.90;;;;;;;16.72;100.00;94326.91;5007151;28;20199;-59
2023/07/28 01:27:45;;;;;;;1999.90;999.90;;;;;;;16.67;100.00;94333.09;5007046;28;20206;-59
2023/07/28 01:30:11;;;;;;;1999.90;999.90;;;;;;;16.65;100.00;94327.25;5007120;28;20263;-58
2023/07/28 01:32:37;;;;;;;1999.90;999.90;;;;;;;16.65;100.00;94332.78;5006677;28;20227;-59
2023/07/28 01:35:03;;;;;;;1999.90;999.90;;;;;;;16.63;100.00;94327.72;5006599;28;20224;-59
2023/07/28 01:37:29;;;;;;;1999.90;999.90;;;;;;;16.60;100.00;94327.91;5006346;28;20223;-60
2023/07/28 01:39:54;;;;;;;1999.90;999.90;;;;;;;16.55;100.00;94325.78;5006539;28;20355;-60
2023/07/28 01:42:20;;;;;;;1999.90;999.90;;;;;;;16.48;100.00;94323.38;5006264;28;20259;-59
2023/07/28 01:44:45;;;;;;;1999.90;999.90;;;;;;;16.42;100.00;94314.22;5006429;28;20196;-59
2023/07/28 01:47:11;;;;;;;1999.90;999.90;;;;;;;16.32;100.00;94308.72;5006366;28;20208;-59
2023/07/28 01:49:36;;;;;;;1999.90;999.90;;;;;;;16.29;100.00;94298.63;5006429;28;20192;-59
2023/07/28 01:52:02;;;;;;;1999.90;999.90;;;;;;;16.26;100.00;94282.28;5006542;28;20219;-59
2023/07/28 01:54:27;;;;;;;1999.90;999.90;;;;;;;16.23;100.00;94266.66;5005440;28;20180;-58
2023/07/28 01:56:52;;;;;;;1999.90;999.90;;;;;;;16.17;100.00;94247.25;5005763;28;20192;-59
2023/07/28 01:59:19;;;;;;;1999.90;999.90;;;;;;;16.10;100.00;94236.56;5005896;28;20238;-59
2023/07/28 02:01:44;;;;;;;1999.90;999.90;;;;;;;16.06;100.00;94235.97;5005795;28;20218;-59
2023/07/28 02:04:09;;;;;;;1999.90;999.90;;;;;;;16.04;100.00;94221.94;5005944;28;20199;-59
2023/07/28 02:06:35;;;;;;;1999.90;999.90;;;;;;;15.99;100.00;94211.53;5006333;28;20210;-59
2023/07/28 02:09:00;;;;;;;1999.90;999.90;;;;;;;15.95;100.00;94213.69;5005965;28;20196;-58
2023/07/28 02:11:25;;;;;;;1999.90;999.90;;;;;;;15.93;100.00;94224.44;5005745;28;20195;-58
2023/07/28 02:13:51;;;;;;;1999.90;999.90;;;;;;;15.90;100.00;94230.88;5005898;28;20195;-58
2023/07/28 02:16:16;;;;;;;1999.90;999.90;;;;;;;15.90;100.00;94233.63;5006287;28;20199;-59
2023/07/28 02:18:41;;;;;;;1999.90;999.90;;;;;;;15.90;100.00;94260.38;5005773;28;20259;-59
2023/07/28 02:21:08;;;;;;;1999.90;999.90;;;;;;;15.87;100.00;94289.63;5005792;28;20263;-58
2023/07/28 02:23:34;;;;;;;1999.90;999.90;;;;;;;15.88;100.00;94318.66;5005734;28;20211;-59
2023/07/28 02:25:59;;;;;;;1999.90;999.90;;;;;;;15.90;100.00;94343.00;5006070;28;20219;-59
2023/07/28 02:28:24;;;;;;;1999.90;999.90;;;;;;;15.93;100.00;94355.84;5005992;28;20198;-59
2023/07/28 02:30:50;;;;;;;1999.90;999.90;;;;;;;15.95;100.00;94362.41;5005632;28;20202;-59
2023/07/28 02:33:15;;;;;;;1999.90;999.90;;;;;;;15.92;100.00;94368.84;5005271;28;20231;-60
2023/07/28 02:35:40;;;;;;;1999.90;999.90;;;;;;;15.92;100.00;94379.84;5005365;28;20210;-59
2023/07/28 02:38:06;;;;;;;1999.90;999.90;;;;;;;15.93;100.00;94386.13;5005255;28;20203;-59
2023/07/28 02:40:33;;;;;;;1999.90;999.90;;;;;;;15.90;100.00;94393.34;5005098;28;20259;-59
2023/07/28 02:42:58;;;;;;;1999.90;999.90;;;;;;;15.90;100.00;94401.59;5005134;28;20222;-59
2023/07/28 02:45:24;;;;;;;1999.90;999.90;;;;;;;15.89;100.00;94402.78;5005234;28;20196;-59
2023/07/28 02:47:50;;;;;;;1999.90;999.90;;;;;;;15.86;100.00;94403.75;5005208;28;20222;-59
2023/07/28 02:50:15;;;;;;;1999.90;999.90;;;;;;;15.84;100.00;94399.91;5005538;28;20204;-59
2023/07/28 02:52:41;;;;;;;1999.90;999.90;;;;;;;15.82;100.00;94397.63;5005125;28;20219;-59
2023/07/28 02:55:06;;;;;;;1999.90;999.90;;;;;;;15.80;100.00;94400.06;5004938;28;20200;-59
2023/07/28 02:57:32;;;;;;;1999.90;999.90;;;;;;;15.78;100.00;94399.75;5005610;28;20204;-59
2023/07/28 02:59:58;;;;;;;1999.90;999.90;;;;;;;15.76;100.00;94396.72;5005474;28;20199;-59
2023/07/28 03:02:23;;;;;;;1999.90;999.90;;;;;;;15.76;100.00;94388.44;5005690;28;20200;-60
2023/07/28 03:04:49;;;;;;;1999.90;999.90;;;;;;;15.75;100.00;94392.44;5004697;28;20196;-59
2023/07/28 03:07:14;;;;;;;1999.90;999.90;;;;;;;15.75;100.00;94386.94;5004519;28;20314;-60
2023/07/28 03:09:40;;;;;;;1999.90;999.90;;;;;;;15.70;100.00;94384.78;5004691;28;20196;-59
2023/07/28 03:12:06;;;;;;;1999.90;999.90;;;;;;;15.69;100.00;94372.25;5004699;28;20276;-59
2023/07/28 03:14:31;;;;;;;1999.90;999.90;;;;;;;15.68;100.00;94370.72;5004740;28;20191;-59
2023/07/28 03:16:57;;;;;;;1999.90;999.90;;;;;;;15.66;100.00;94367.66;5004495;28;20195;-59
2023/07/28 03:19:22;;;;;;;1999.90;999.90;;;;;;;15.67;100.00;94380.19;5004815;28;20200;-60
2023/07/28 03:21:48;;;;;;;1999.90;999.90;;;;;;;15.68;100.00;94381.75;5004527;28;20270;-59
2023/07/28 03:24:14;;;;;;;1999.90;999.90;;;;;;;15.70;100.00;94368.25;5004744;28;20195;-60
2023/07/28 03:26:39;;;;;;;1999.90;999.90;;;;;;;15.71;100.00;94369.03;5004869;28;20219;-59
2023/07/28 03:29:04;;;;;;;1999.90;999.90;;;;;;;15.68;100.00;94367.97;5004971;28;20242;-59
2023/07/28 03:31:30;;;;;;;1999.90;999.90;;;;;;;15.70;100.00;94379.28;5004887;28;20196;-62
2023/07/28 03:33:55;;;;;;;1999.90;999.90;;;;;;;15.69;100.00;94383.25;5004852;28;20210;-60
2023/07/28 03:36:21;;;;;;;1999.90;999.90;;;;;;;15.75;100.00;94386.94;5004888;28;20199;-59
2023/07/28 03:38:46;;;;;;;1999.90;999.90;;;;;;;15.78;100.00;94383.22;5004597;28;20211;-59
2023/07/28 03:41:12;;;;;;;1999.90;999.90;;;;;;;15.76;100.00;94393.19;5004385;28;20247;-59
2023/07/28 03:43:38;;;;;;;1999.90;999.90;;;;;;;15.76;100.00;94393.97;5004218;28;20199;-59
2023/07/28 03:46:03;;;;;;;1999.90;999.90;;;;;;;15.79;100.00;94393.03;5004318;28;20235;-59
2023/07/28 03:48:29;;;;;;;1999.90;999.90;;;;;;;15.87;100.00;94390.72;5004402;28;20203;-59
2023/07/28 03:50:54;;;;;;;1999.90;999.90;;;;;;;15.93;100.00;94386.13;5003978;28;20203;-60
2023/07/28 03:53:20;;;;;;;1999.90;999.90;;;;;;;16.03;100.00;94395.91;5004271;28;20200;-59
2023/07/28 03:55:45;;;;;;;1999.90;999.90;;;;;;;16.14;100.00;94401.69;5004552;28;20200;-59
2023/07/28 03:58:10;;;;;;;1999.90;999.90;;;;;;;16.24;100.00;94406.72;5004253;28;20215;-59
2023/07/28 04:00:36;;;;;;;1999.90;999.90;;;;;;;16.35;100.00;94412.50;5004396;28;20215;-59
2023/07/28 04:03:01;;;;;;;1999.90;999.90;;;;;;;16.51;100.00;94443.72;5004676;28;20195;-59
2023/07/28 04:05:26;;;;;;;1999.90;999.90;;;;;;;16.65;100.00;94452.09;5003947;28;20227;-59
2023/07/28 04:07:52;;;;;;;1999.90;999.90;;;;;;;16.82;100.00;94474.56;5004037;28;20262;-59
2023/07/28 04:10:17;;;;;;;1999.90;999.90;;;;;;;16.97;100.00;94483.69;5004153;28;20246;-60
2023/07/28 04:12:42;;;;;;;1999.90;999.90;;;;;;;17.23;100.00;94501.34;5004084;28;20271;-59
2023/07/28 04:15:08;;;;;;;1999.90;999.90;;;;;;;17.56;100.00;94518.69;5004232;28;20203;-59
2023/07/28 04:17:34;;;;;;;1999.90;999.90;;;;;;;17.90;100.00;94559.59;5004537;28;20202;-59
2023/07/28 04:19:59;;;;;;;1999.90;999.90;;;;;;;18.25;100.00;94588.22;5007888;28;20211;-59
2023/07/28 04:22:24;;;;;;;1999.90;999.90;;;;;;;18.62;100.00;94614.38;5007772;28;20206;-59
2023/07/28 04:24:50;;;;;;;1999.90;999.90;;;;;;;19.06;100.00;94637.34;5007847;28;20227;-59
2023/07/28 04:27:15;;;;;;;1999.90;999.90;;;;;;;19.62;100.00;94650.91;5008213;28;20214;-60
2023/07/28 04:29:41;;;;;;;1999.90;999.90;;;;;;;19.88;100.00;94671.22;5008035;28;20183;-59
2023/07/28 04:32:06;;;;;;;1999.90;999.90;;;;;;;19.75;100.00;94679.09;5008079;28;20206;-59
2023/07/28 04:34:35;;;;;;;1999.90;999.90;;;;;;;19.83;100.00;94688.53;5007423;28;20202;-60
2023/07/28 04:37:01;;;;;;;1999.90;999.90;;;;;;;19.90;100.00;94692.91;5008030;28;20210;-59
2023/07/28 04:39:26;;;;;;;1999.90;999.90;;;;;;;19.71;100.00;94713.78;5007864;28;20227;-59
2023/07/28 04:41:51;;;;;;;1999.90;999.90;;;;;;;19.34;100.00;94696.78;5007649;28;20224;-59
2023/07/28 04:44:18;;;;;;;1999.90;999.90;;;;;;;19.09;100.00;94692.50;5007264;28;20199;-59
2023/07/28 04:46:43;;;;;;;1999.90;999.90;;;;;;;18.86;100.00;94689.78;5007437;28;20207;-59
2023/07/28 04:49:09;;;;;;;1999.90;999.90;;;;;;;18.67;100.00;94672.56;5007477;28;20262;-59
2023/07/28 04:51:34;;;;;;;1999.90;999.90;;;;;;;18.58;100.00;94669.84;5007906;28;20203;-60
2023/07/28 04:53:59;;;;;;;1999.90;999.90;;;;;;;18.65;100.00;94674.28;5007229;28;20206;-59
2023/07/28 04:56:25;;;;;;;1999.90;999.90;;;;;;;18.96;100.00;94685.69;5007571;28;20207;-59
2023/07/28 04:58:50;;;;;;;1999.90;999.90;;;;;;;19.25;100.00;94688.53;5007066;28;20225;-61
2023/07/28 05:01:15;;;;;;;1999.90;999.90;;;;;;;19.20;100.00;94691.97;5007527;28;20215;-59
2023/07/28 05:03:41;;;;;;;1999.90;999.90;;;;;;;19.12;100.00;94701.84;5007690;28;20196;-59
2023/07/28 05:06:06;;;;;;;1999.90;999.90;;;;;;;18.99;100.00;94704.13;5007255;28;20200;-61
2023/07/28 05:08:32;;;;;;;1999.90;999.90;;;;;;;18.82;100.00;94700.25;5006987;28;20210;-60
2023/07/28 05:10:57;;;;;;;1999.90;999.90;;;;;;;18.77;100.00;94692.63;5007001;28;20196;-59
2023/07/28 05:13:22;;;;;;;1999.90;999.90;;;;;;;18.81;100.00;94687.69;5006883;28;20201;-59
2023/07/28 05:15:48;;;;;;;1999.90;999.90;;;;;;;18.72;100.00;94690.53;5006908;28;20210;-59
2023/07/28 05:18:13;;;;;;;1999.90;999.90;;;;;;;18.79;100.00;94695.66;5007069;28;20202;-59
2023/07/28 05:20:38;;;;;;;1999.90;999.90;;;;;;;18.80;100.00;94688.91;5006759;28;20223;-59
2023/07/28 05:23:04;;;;;;;1999.90;999.90;;;;;;;18.79;100.00;94673.53;5006823;28;20206;-59
2023/07/28 05:25:29;;;;;;;1999.90;999.90;;;;;;;18.78;100.00;94677.53;5006534;28;20206;-59
2023/07/28 05:27:55;;;;;;;1999.90;999.90;;;;;;;18.82;100.00;94672.59;5007102;28;20203;-59
2023/07/28 05:30:20;;;;;;;1999.90;999.90;;;;;;;18.86;100.00;94684.25;5006617;28;20238;-59
2023/07/28 05:32:47;;;;;;;1999.90;999.90;;;;;;;18.84;100.00;94676.41;5006589;28;20183;-59
2023/07/28 05:35:12;;;;;;;1999.90;999.90;;;;;;;18.79;100.00;94668.00;5006517;28;20267;-59
2023/07/28 05:37:38;;;;;;;1999.90;999.90;;;;;;;18.85;100.00;94671.66;5006519;28;20204;-60
2023/07/28 05:40:03;;;;;;;1999.90;999.90;;;;;;;18.94;100.00;94674.34;5006880;28;20202;-60
2023/07/28 05:42:29;;;;;;;1999.90;999.90;;;;;;;19.00;100.00;94673.22;5006320;28;20200;-59
2023/07/28 05:44:55;;;;;;;1999.90;999.90;;;;;;;19.14;100.00;94680.00;5006798;28;20271;-60
2023/07/28 05:47:20;;;;;;;1999.90;999.90;;;;;;;19.24;100.00;94678.69;5006635;28;20311;-60
2023/07/28 05:49:46;;;;;;;1999.90;999.90;;;;;;;19.32;100.00;94683.41;5006241;28;20231;-59
2023/07/28 05:52:11;;;;;;;1999.90;999.90;;;;;;;19.42;100.00;94698.66;5006361;28;20200;-59
2023/07/28 05:54:37;;;;;;;1999.90;999.90;;;;;;;19.56;100.00;94697.16;5006637;28;20246;-60
2023/07/28 05:57:02;;;;;;;1999.90;999.90;;;;;;;19.75;100.00;94711.56;5005974;28;20206;-59
2023/07/28 05:59:28;;;;;;;1999.90;999.90;;;;;;;20.10;100.00;94724.25;5006041;28;20274;-59
2023/07/28 06:01:53;;;;;;;1999.90;999.90;;;;;;;20.88;100.00;94737.22;5005875;28;20243;-60
2023/07/28 06:04:19;;;;;;;1999.90;999.90;;;;;;;21.74;100.00;94757.44;5005942;28;20176;-61
2023/07/28 06:06:44;;;;;;;1999.90;999.90;;;;;;;22.27;100.00;94772.34;5006317;28;20204;-59
2023/07/28 06:09:09;;;;;;;1999.90;999.90;;;;;;;22.20;100.00;94799.84;5005848;28;20200;-59
2023/07/28 06:11:35;;;;;;;1999.90;999.90;;;;;;;21.76;100.00;94805.75;5006050;28;20210;-58
2023/07/28 06:14:00;;;;;;;1999.90;999.90;;;;;;;21.70;100.00;94799.34;5005616;28;20196;-59
2023/07/28 06:16:25;;;;;;;1999.90;999.90;;;;;;;21.48;100.00;94799.09;5006396;28;20227;-59
2023/07/28 06:18:51;;;;;;;1999.90;999.90;;;;;;;21.32;100.00;94804.47;5005648;28;20238;-59
2023/07/28 06:21:16;;;;;;;1999.90;999.90;;;;;;;21.62;100.00;94800.25;5005581;28;20216;-59
2023/07/28 06:23:41;;;;;;;1999.90;999.90;;;;;;;22.18;100.00;94803.13;5005653;28;20198;-59
2023/07/28 06:26:07;;;;;;;1999.90;999.90;;;;;;;22.21;100.00;94802.13;5005722;28;20200;-59
2023/07/28 06:28:32;;;;;;;1999.90;999.90;;;;;;;22.54;100.00;94806.47;5005492;28;20191;-60
2023/07/28 06:30:58;;;;;;;1999.90;999.90;;;;;;;23.43;100.00;94817.66;5005729;28;20242;-60
2023/07/28 06:33:28;;;;;;;1999.90;999.90;;;;;;;24.62;100.00;94834.44;5005159;28;20218;-60
2023/07/28 06:35:53;;;;;;;1999.90;999.90;;;;;;;24.88;100.00;94845.38;5005565;28;20234;-60
2023/07/28 06:38:19;;;;;;;1999.90;999.90;;;;;;;24.52;100.00;94844.34;5005306;28;20196;-59
2023/07/28 06:40:44;;;;;;;1999.90;999.90;;;;;;;24.55;100.00;94840.50;5004860;28;20216;-60
2023/07/28 06:43:10;;;;;;;1999.90;999.90;;;;;;;24.95;100.00;94842.78;5005238;28;20200;-60
2023/07/28 06:45:35;;;;;;;1999.90;999.90;;;;;;;24.48;100.00;94843.78;5005167;28;20208;-62
2023/07/28 06:48:01;;;;;;;1999.90;999.90;;;;;;;24.29;100.00;94853.19;5004838;28;20235;-60
2023/07/28 06:50:26;;;;;;;1999.90;999.90;;;;;;;24.23;100.00;94846.84;5005546;28;20234;-61
2023/07/28 06:52:52;;;;;;;1999.90;999.90;;;;;;;24.15;100.00;94863.28;5005155;28;20219;-62
2023/07/28 06:55:18;;;;;;;1999.90;999.90;;;;;;;24.40;100.00;94850.41;5005016;28;20199;-61
2023/07/28 06:57:44;;;;;;;1999.90;999.90;;;;;;;24.27;100.00;94853.69;5004854;28;20206;-61
2023/07/28 07:00:10;;;;;;;1999.90;999.90;;;;;;;25.45;100.00;94867.88;5005323;28;20227;-61
2023/07/28 07:02:36;;;;;;;1999.90;999.90;;;;;;;25.15;100.00;94864.13;5004661;28;20200;-62
2023/07/28 07:05:01;;;;;;;1999.90;999.90;;;;;;;26.79;100.00;94853.47;5005166;28;20239;-61
2023/07/28 07:07:27;;;;;;;1999.90;999.90;;;;;;;28.17;100.00;94863.22;5005274;28;20227;-61
2023/07/28 07:09:52;;;;;;;1999.90;999.90;;;;;;;29.26;100.00;94859.28;5005222;28;20226;-61
2023/07/28 07:12:17;;;;;;;1999.90;999.90;;;;;;;30.23;89.03;94849.44;5004995;28;20199;-59
2023/07/28 07:14:42;;;;;;;1999.90;999.90;;;;;;;30.48;86.43;94858.41;5004641;28;20227;-60
2023/07/28 07:17:08;;;;;;;1999.90;999.90;;;;;;;30.96;86.93;94866.25;5004636;28;20199;-60
2023/07/28 07:19:33;;;;;;;1999.90;999.90;;;;;;;30.89;79.36;94866.94;5004799;28;20192;-61
2023/07/28 07:21:58;;;;;;;1999.90;999.90;;;;;;;29.51;90.38;94858.56;5004539;28;20225;-64
2023/07/28 07:24:24;;;;;;;1999.90;999.90;;;;;;;28.20;100.00;94857.31;5005002;28;20219;-62
2023/07/28 07:26:50;;;;;;;1999.90;999.90;;;;;;;27.53;100.00;94856.59;5004525;28;20195;-59
2023/07/28 07:29:16;;;;;;;1999.90;999.90;;;;;;;27.76;100.00;94855.03;5004520;28;20271;-61
2023/07/28 07:31:41;;;;;;;1999.90;999.90;;;;;;;27.88;100.00;94850.84;5004897;28;20252;-63
2023/07/28 07:34:07;;;;;;;1999.90;999.90;;;;;;;29.57;93.77;94858.44;5005091;28;20219;-63
2023/07/28 07:36:32;;;;;;;1999.90;999.90;;;;;;;28.96;95.92;94858.75;5004475;28;20183;-62
2023/07/28 07:38:58;;;;;;;1999.90;999.90;;;;;;;29.34;93.35;94860.16;5004891;28;20200;-61
2023/07/28 07:41:24;;;;;;;1999.90;999.90;;;;;;;30.04;88.89;94853.69;5004745;28;20207;-62
2023/07/28 07:43:52;;;;;;;1999.90;999.90;;;;;;;31.57;80.09;94851.34;5004347;28;20279;-62
2023/07/28 07:46:19;;;;;;;1999.90;999.90;;;;;;;32.99;70.27;94859.75;5004573;28;20241;-63
2023/07/28 07:48:44;;;;;;;1999.90;999.90;;;;;;;33.81;66.83;94861.09;5004129;28;20203;-63
2023/07/28 07:51:10;;;;;;;1999.90;999.90;;;;;;;34.49;62.30;94863.78;5004354;28;20202;-62
2023/07/28 07:53:36;;;;;;;1999.90;999.90;;;;;;;33.24;67.75;94869.22;5007084;28;20203;-65
2023/07/28 07:56:05;;;;;;;1999.90;999.90;;;;;;;32.92;67.68;94857.66;5008271;28;20195;-62
2023/07/28 07:58:31;;;;;;;1999.90;999.90;;;;;;;33.11;67.40;94860.16;5008569;28;20199;-62
2023/07/28 08:00:56;;;;;;;1999.90;999.90;;;;;;;33.43;67.86;94858.31;5008230;28;20222;-62
2023/07/28 08:03:22;;;;;;;1999.90;999.90;;;;;;;32.78;69.37;94850.63;5008477;28;20205;-62
2023/07/28 08:05:47;;;;;;;1999.90;999.90;;;;;;;31.40;79.08;94850.28;5008022;28;20217;-61
2023/07/28 08:08:16;;;;;;;1999.90;999.90;;;;;;;30.31;90.25;94852.34;5008719;28;20227;-63
2023/07/28 08:10:42;;;;;;;1999.90;999.90;;;;;;;32.40;81.03;94843.34;5008351;28;20219;-62
2023/07/28 08:13:07;;;;;;;1999.90;999.90;;;;;;;32.33;78.63;94856.16;5007899;28;20203;-62
2023/07/28 08:15:33;;;;;;;1999.90;999.90;;;;;;;33.23;73.15;94852.78;5008183;28;20223;-62
2023/07/28 08:20:41;;;;;;;1999.90;999.90;;;;;;;32.90;75.55;94854.66;5041793;23;20226;-62
2023/07/28 08:23:07;;;;;;;1999.90;999.90;;;;;;;32.71;77.14;94851.38;5027675;28;20227;-61
2023/07/28 08:25:34;;;;;;;1999.90;999.90;;;;;;;32.79;79.85;94852.16;5028232;28;20183;-61
2023/07/28 08:28:00;;;;;;;1999.90;999.90;;;;;;;33.97;72.96;94853.34;5027335;28;20195;-62
2023/07/28 08:30:25;;;;;;;1999.90;999.90;;;;;;;34.31;69.68;94850.78;5028757;28;20197;-61
2023/07/28 08:32:50;;;;;;;1999.90;999.90;;;;;;;35.06;68.02;94845.50;5027519;28;20278;-61
2023/07/28 08:35:16;;;;;;;1999.90;999.90;;;;;;;35.29;64.78;94853.88;5027654;28;20191;-62
2023/07/28 08:37:41;;;;;;;1999.90;999.90;;;;;;;34.66;66.60;94852.56;5027694;28;20221;-62
2023/07/28 08:40:07;;;;;;;1999.90;999.90;;;;;;;33.34;74.96;94855.28;5026950;28;20219;-60
2023/07/28 08:42:37;;;;;;;1999.90;999.90;;;;;;;32.38;81.66;94846.75;5027229;28;20187;-59
2023/07/28 08:45:08;;;;;;;1999.90;999.90;;;;;;;32.05;80.80;94850.56;5027408;28;20203;-59
2023/07/28 08:47:34;;;;;;;1999.90;999.90;;;;;;;33.70;70.87;94856.59;5027190;28;20187;-60
2023/07/28 08:50:00;;;;;;;1999.90;999.90;;;;;;;32.76;76.04;94841.97;5027177;28;20205;-59
2023/07/28 08:52:25;;;;;;;1999.90;999.90;;;;;;;32.84;75.26;94854.06;5027037;28;20195;-58
2023/07/28 08:54:51;;;;;;;1999.90;999.90;;;;;;;33.36;71.10;94850.56;5027031;28;20199;-59
2023/07/28 08:57:16;;;;;;;1999.90;999.90;;;;;;;33.11;74.13;94846.75;5027153;28;20195;-59
2023/07/28 08:59:47;;;;;;;1999.90;999.90;;;;;;;32.30;77.92;94857.25;5026890;28;20249;-59
2023/07/28 09:02:14;;;;;;;1999.90;999.90;;;;;;;32.60;76.00;94857.41;5026879;28;20222;-60
2023/07/28 09:04:39;;;;;;;1999.90;999.90;;;;;;;32.21;77.89;94859.84;5026769;28;20187;-60
2023/07/28 09:07:06;;;;;;;1999.90;999.90;;;;;;;31.94;80.44;94862.16;5026886;28;20199;-60
2023/07/28 09:09:32;;;;;;;1999.90;999.90;;;;;;;31.39;85.67;94854.41;5027323;28;20205;-59
2023/07/28 09:11:59;;;;;;;1999.90;999.90;;;;;;;30.83;82.92;94855.03;5026491;28;20195;-60
2023/07/28 09:14:25;;;;;;;1999.90;999.90;;;;;;;30.89;86.65;94858.47;5026301;28;20230;-59
2023/07/28 09:16:51;;;;;;;1999.90;999.90;;;;;;;30.12;91.81;94863.00;5026431;28;20195;-59
2023/07/28 09:19:17;;;;;;;1999.90;999.90;;;;;;;29.44;99.15;94864.06;5026430;28;20199;-59
2023/07/28 09:21:46;;;;;;;1999.90;999.90;;;;;;;29.22;100.00;94862.41;5026467;28;20266;-59
2023/07/28 09:24:12;;;;;;;1999.90;999.90;;;;;;;28.45;100.00;94863.63;5026242;28;20222;-60
2023/07/28 09:26:41;;;;;;;1999.90;999.90;;;;;;;28.38;100.00;94869.06;5026404;28;20195;-59
2023/07/28 09:29:11;;;;;;;1999.90;999.90;;;;;;;27.71;100.00;94867.09;5026267;28;20187;-59
2023/07/28 09:31:36;;;;;;;1999.90;999.90;;;;;;;27.36;100.00;94870.06;5026719;28;20179;-59
2023/07/28 09:34:02;;;;;;;1999.90;999.90;;;;;;;27.37;100.00;94871.56;5026371;28;20206;-59
2023/07/28 09:36:28;;;;;;;1999.90;999.90;;;;;;;27.08;100.00;94866.72;5025944;28;20195;-59
2023/07/28 09:38:55;;;;;;;1999.90;999.90;;;;;;;27.01;100.00;94866.50;5025784;28;20200;-60
2023/07/28 09:41:22;;;;;;;1999.90;999.90;;;;;;;26.96;100.00;94865.31;5026001;28;20207;-60
2023/07/28 09:43:49;;;;;;;1999.90;999.90;;;;;;;26.83;100.00;94865.16;5026143;28;20206;-59
2023/07/28 09:46:18;;;;;;;1999.90;999.90;;;;;;;26.44;100.00;94870.25;5025854;28;20199;-60
2023/07/28 09:48:45;;;;;;;1999.90;999.90;;;;;;;26.49;100.00;94866.66;5025748;28;20258;-59
2023/07/28 09:51:19;;;;;;;1999.90;999.90;;;;;;;26.62;100.00;94869.63;5026201;28;20202;-60
2023/07/28 09:53:55;;;;;;;1999.90;999.90;;;;;;;26.52;100.00;94876.84;5026219;28;20248;-59
2023/07/28 09:56:26;;;;;;;1999.90;999.90;;;;;;;26.43;100.00;94867.94;5026115;28;20190;-60
2023/07/28 09:58:52;;;;;;;1999.90;999.90;;;;;;;26.59;100.00;94864.28;5026150;28;20203;-59
2023/07/28 10:01:19;;;;;;;1999.90;999.90;;;;;;;26.86;100.00;94861.31;5025945;28;20233;-59
2023/07/28 10:03:45;;;;;;;1999.90;999.90;;;;;;;26.84;100.00;94863.84;5025764;28;20248;-59
2023/07/28 10:06:11;;;;;;;1999.90;999.90;;;;;;;27.16;100.00;94858.47;5025648;28;20199;-60
2023/07/28 10:08:37;;;;;;;1999.90;999.90;;;;;;;26.99;100.00;94858.63;5025541;28;20195;-59
2023/07/28 10:11:04;;;;;;;1999.90;999.90;;;;;;;27.40;100.00;94852.91;5025447;28;20195;-59
2023/07/28 10:13:40;;;;;;;1999.90;999.90;;;;;;;27.74;100.00;94854.81;5025362;28;20206;-59
2023/07/28 10:16:06;;;;;;;1999.90;999.90;;;;;;;27.76;100.00;94855.03;5024694;28;20187;-59
2023/07/28 10:18:31;;;;;;;1999.90;999.90;;;;;;;27.95;100.00;94853.06;5025578;28;20222;-60
2023/07/28 10:21:05;;;;;;;1999.90;999.90;;;;;;;27.95;100.00;94852.28;5025444;28;20209;-62
2023/07/28 10:23:34;;;;;;;1999.90;999.90;;;;;;;27.85;100.00;94860.31;5025546;28;20172;-60
2023/07/28 10:26:01;;;;;;;1999.90;999.90;;;;;;;27.58;100.00;94858.59;5025685;28;20238;-59
2023/07/28 10:28:38;;;;;;;1999.90;999.90;;;;;;;27.43;100.00;94866.63;5025531;28;20194;-59
2023/07/28 10:31:06;;;;;;;1999.90;999.90;;;;;;;26.92;100.00;94850.03;5025969;28;20273;-59
2023/07/28 10:33:37;;;;;;;1999.90;999.90;;;;;;;27.00;100.00;94859.41;5025446;28;20190;-59
2023/07/28 10:36:21;;;;;;;1999.90;999.90;;;;;;;26.88;100.00;94853.13;5025081;28;20245;-59
2023/07/28 10:38:58;;;;;;;1999.90;999.90;;;;;;;26.69;100.00;94869.06;5024952;28;20194;-59
2023/07/28 10:41:24;;;;;;;1999.90;999.90;;;;;;;26.90;100.00;94867.38;5025094;28;20230;-60
2023/07/28 10:43:51;;;;;;;1999.90;999.90;;;;;;;26.85;100.00;94865.41;5025357;28;20203;-59
2023/07/28 10:46:18;;;;;;;1999.90;999.90;;;;;;;27.03;100.00;94859.13;5025223;28;20222;-59